Terminal Aerodrome Forecast
Issued by NWS

Home | Current Version | Previous Version | Text Only | Print | Product List | Glossary On
Versions: 1 2 3 4 5 6 7 8 9 10 11 12 13 14 15 16 17 18 19 20 21
000
FTUS41 KBGM 060548
TAFELM
TAF
KELM 060548Z 0606/0706 00000KT P6SM SCT100 BKN250
      TEMPO 0606/0608 4SM BR
     FM060800 00000KT 4SM BR SCT100 BKN250
      TEMPO 0608/0612 1 1/2SM BR SCT005 BKN250
     FM061200 VRB03KT P6SM SCT100 BKN250
     FM061700 18005KT P6SM BKN045 OVC120=

USA.gov is the U.S. government's official web portal to all federal, state and local government web resources and services.